sensor_id;sensor_type;location;lat;lon;timestamp;P1;durP1;ratioP1;P2;durP2;ratioP2
20040;SDS011;10181;48.072;9.884;2023-02-28T00:01:19;5.03;;;4.83;;
20040;SDS011;10181;48.072;9.884;2023-02-28T00:03:45;5.33;;;5.07;;
20040;SDS011;10181;48.072;9.884;2023-02-28T00:06:11;4.47;;;4.27;;
20040;SDS011;10181;48.072;9.884;2023-02-28T00:08:36;5.77;;;5.33;;
20040;SDS011;10181;48.072;9.884;2023-02-28T00:11:07;4.63;;;4.43;;
20040;SDS011;10181;48.072;9.884;2023-02-28T00:13:36;4.73;;;4.33;;
20040;SDS011;10181;48.072;9.884;2023-02-28T00:16:11;4.73;;;4.53;;
20040;SDS011;10181;48.072;9.884;2023-02-28T00:18:39;4.90;;;4.70;;
20040;SDS011;10181;48.072;9.884;2023-02-28T00:21:05;4.70;;;4.40;;
20040;SDS011;10181;48.072;9.884;2023-02-28T00:23:31;4.17;;;3.87;;
20040;SDS011;10181;48.072;9.884;2023-02-28T00:25:57;5.80;;;4.80;;
20040;SDS011;10181;48.072;9.884;2023-02-28T00:28:22;6.30;;;6.00;;
20040;SDS011;10181;48.072;9.884;2023-02-28T00:30:49;6.30;;;5.90;;
20040;SDS011;10181;48.072;9.884;2023-02-28T00:33:14;5.27;;;4.93;;
20040;SDS011;10181;48.072;9.884;2023-02-28T00:35:40;6.37;;;6.07;;
20040;SDS011;10181;48.072;9.884;2023-02-28T00:38:06;6.00;;;5.60;;
20040;SDS011;10181;48.072;9.884;2023-02-28T00:40:31;5.40;;;5.20;;
20040;SDS011;10181;48.072;9.884;2023-02-28T00:42:57;6.37;;;5.97;;
20040;SDS011;10181;48.072;9.884;2023-02-28T00:45:22;5.70;;;5.50;;
20040;SDS011;10181;48.072;9.884;2023-02-28T00:47:48;5.90;;;5.60;;
20040;SDS011;10181;48.072;9.884;2023-02-28T00:50:16;5.83;;;5.63;;
20040;SDS011;10181;48.072;9.884;2023-02-28T00:52:43;6.23;;;5.93;;
20040;SDS011;10181;48.072;9.884;2023-02-28T00:55:09;6.23;;;5.93;;
20040;SDS011;10181;48.072;9.884;2023-02-28T00:57:35;5.70;;;5.40;;
20040;SDS011;10181;48.072;9.884;2023-02-28T01:00:01;6.50;;;6.07;;
20040;SDS011;10181;48.072;9.884;2023-02-28T01:02:28;6.30;;;6.10;;
20040;SDS011;10181;48.072;9.884;2023-02-28T01:04:54;6.07;;;5.77;;
20040;SDS011;10181;48.072;9.884;2023-02-28T01:07:21;5.97;;;5.70;;
20040;SDS011;10181;48.072;9.884;2023-02-28T01:09:47;6.47;;;6.07;;
20040;SDS011;10181;48.072;9.884;2023-02-28T01:12:13;5.77;;;5.57;;
20040;SDS011;10181;48.072;9.884;2023-02-28T01:14:39;5.77;;;5.27;;
20040;SDS011;10181;48.072;9.884;2023-02-28T01:17:04;5.93;;;5.63;;
20040;SDS011;10181;48.072;9.884;2023-02-28T01:19:30;5.87;;;5.63;;
20040;SDS011;10181;48.072;9.884;2023-02-28T01:21:56;6.17;;;5.70;;
20040;SDS011;10181;48.072;9.884;2023-02-28T01:24:21;5.17;;;4.87;;
20040;SDS011;10181;48.072;9.884;2023-02-28T01:26:47;5.23;;;5.03;;
20040;SDS011;10181;48.072;9.884;2023-02-28T01:29:12;5.30;;;4.93;;
20040;SDS011;10181;48.072;9.884;2023-02-28T01:31:38;4.83;;;4.63;;
20040;SDS011;10181;48.072;9.884;2023-02-28T01:34:04;4.37;;;4.17;;
20040;SDS011;10181;48.072;9.884;2023-02-28T01:36:29;5.10;;;4.80;;
20040;SDS011;10181;48.072;9.884;2023-02-28T01:38:55;4.20;;;3.93;;
20040;SDS011;10181;48.072;9.884;2023-02-28T01:41:26;4.37;;;4.07;;
20040;SDS011;10181;48.072;9.884;2023-02-28T01:46:19;5.40;;;5.10;;
20040;SDS011;10181;48.072;9.884;2023-02-28T01:48:51;4.80;;;4.60;;
20040;SDS011;10181;48.072;9.884;2023-02-28T01:51:37;4.43;;;4.13;;
20040;SDS011;10181;48.072;9.884;2023-02-28T01:54:16;5.00;;;4.60;;
20040;SDS011;10181;48.072;9.884;2023-02-28T01:56:49;4.50;;;4.20;;
20040;SDS011;10181;48.072;9.884;2023-02-28T01:59:21;3.87;;;3.67;;
20040;SDS011;10181;48.072;9.884;2023-02-28T02:01:57;4.60;;;4.30;;
20040;SDS011;10181;48.072;9.884;2023-02-28T02:04:23;4.93;;;4.70;;
20040;SDS011;10181;48.072;9.884;2023-02-28T02:06:52;5.17;;;4.87;;
20040;SDS011;10181;48.072;9.884;2023-02-28T02:09:18;4.93;;;4.53;;
20040;SDS011;10181;48.072;9.884;2023-02-28T02:11:43;4.87;;;4.67;;
20040;SDS011;10181;48.072;9.884;2023-02-28T02:14:24;6.60;;;6.30;;
20040;SDS011;10181;48.072;9.884;2023-02-28T02:19:46;10.60;;;10.10;;
20040;SDS011;10181;48.072;9.884;2023-02-28T02:41:46;11.93;;;11.37;;
20040;SDS011;10181;48.072;9.884;2023-02-28T02:44:40;12.70;;;12.13;;
20040;SDS011;10181;48.072;9.884;2023-02-28T02:47:10;12.73;;;12.13;;
20040;SDS011;10181;48.072;9.884;2023-02-28T02:49:40;15.17;;;14.33;;
20040;SDS011;10181;48.072;9.884;2023-02-28T02:52:10;14.40;;;13.63;;
20040;SDS011;10181;48.072;9.884;2023-02-28T02:54:40;11.50;;;11.03;;
20040;SDS011;10181;48.072;9.884;2023-02-28T02:57:29;14.37;;;13.67;;
20040;SDS011;10181;48.072;9.884;2023-02-28T03:00:16;18.77;;;17.57;;
20040;SDS011;10181;48.072;9.884;2023-02-28T03:02:44;13.37;;;12.77;;
20040;SDS011;10181;48.072;9.884;2023-02-28T03:05:15;14.33;;;13.73;;
20040;SDS011;10181;48.072;9.884;2023-02-28T03:07:48;13.70;;;13.10;;
20040;SDS011;10181;48.072;9.884;2023-02-28T03:10:34;14.10;;;13.40;;
20040;SDS011;10181;48.072;9.884;2023-02-28T03:13:08;14.80;;;13.97;;
20040;SDS011;10181;48.072;9.884;2023-02-28T03:23:42;13.77;;;13.00;;
20040;SDS011;10181;48.072;9.884;2023-02-28T03:26:22;13.23;;;12.43;;
20040;SDS011;10181;48.072;9.884;2023-02-28T03:28:54;12.27;;;11.60;;
20040;SDS011;10181;48.072;9.884;2023-02-28T03:31:56;15.90;;;15.07;;
20040;SDS011;10181;48.072;9.884;2023-02-28T03:37:35;13.47;;;12.87;;
20040;SDS011;10181;48.072;9.884;2023-02-28T03:40:11;15.30;;;14.50;;
20040;SDS011;10181;48.072;9.884;2023-02-28T03:42:45;16.13;;;15.40;;
20040;SDS011;10181;48.072;9.884;2023-02-28T03:45:18;14.80;;;14.00;;
20040;SDS011;10181;48.072;9.884;2023-02-28T03:47:57;17.47;;;16.57;;
20040;SDS011;10181;48.072;9.884;2023-02-28T03:50:34;14.87;;;14.00;;
20040;SDS011;10181;48.072;9.884;2023-02-28T03:53:16;13.33;;;12.73;;
20040;SDS011;10181;48.072;9.884;2023-02-28T03:55:46;14.80;;;14.00;;
20040;SDS011;10181;48.072;9.884;2023-02-28T03:58:17;13.37;;;12.77;;
20040;SDS011;10181;48.072;9.884;2023-02-28T04:03:50;12.73;;;12.03;;
20040;SDS011;10181;48.072;9.884;2023-02-28T04:06:17;11.00;;;10.37;;
20040;SDS011;10181;48.072;9.884;2023-02-28T04:08:45;11.63;;;11.03;;
20040;SDS011;10181;48.072;9.884;2023-02-28T04:13:39;12.60;;;11.70;;
20040;SDS011;10181;48.072;9.884;2023-02-28T04:16:08;13.43;;;12.77;;
20040;SDS011;10181;48.072;9.884;2023-02-28T04:18:37;13.73;;;12.93;;
20040;SDS011;10181;48.072;9.884;2023-02-28T04:21:03;13.63;;;12.80;;
20040;SDS011;10181;48.072;9.884;2023-02-28T04:23:30;10.57;;;9.97;;
20040;SDS011;10181;48.072;9.884;2023-02-28T04:25:56;9.93;;;9.20;;
20040;SDS011;10181;48.072;9.884;2023-02-28T04:28:21;9.03;;;8.47;;
20040;SDS011;10181;48.072;9.884;2023-02-28T04:30:47;6.93;;;6.43;;
20040;SDS011;10181;48.072;9.884;2023-02-28T04:33:12;7.73;;;7.03;;
20040;SDS011;10181;48.072;9.884;2023-02-28T04:35:38;7.63;;;7.13;;
20040;SDS011;10181;48.072;9.884;2023-02-28T04:38:04;9.33;;;8.53;;
20040;SDS011;10181;48.072;9.884;2023-02-28T04:40:29;7.67;;;7.07;;
20040;SDS011;10181;48.072;9.884;2023-02-28T04:42:55;8.87;;;8.30;;
20040;SDS011;10181;48.072;9.884;2023-02-28T04:45:20;8.87;;;8.27;;
20040;SDS011;10181;48.072;9.884;2023-02-28T04:47:46;8.80;;;8.03;;
20040;SDS011;10181;48.072;9.884;2023-02-28T04:50:11;11.33;;;10.43;;
20040;SDS011;10181;48.072;9.884;2023-02-28T04:52:37;10.97;;;10.27;;
20040;SDS011;10181;48.072;9.884;2023-02-28T04:55:03;12.97;;;12.20;;
20040;SDS011;10181;48.072;9.884;2023-02-28T04:57:28;7.97;;;7.27;;
20040;SDS011;10181;48.072;9.884;2023-02-28T04:59:54;7.47;;;6.87;;
20040;SDS011;10181;48.072;9.884;2023-02-28T05:02:20;6.77;;;6.20;;
20040;SDS011;10181;48.072;9.884;2023-02-28T05:04:46;6.20;;;5.83;;
20040;SDS011;10181;48.072;9.884;2023-02-28T05:07:11;6.27;;;5.83;;
20040;SDS011;10181;48.072;9.884;2023-02-28T05:09:37;8.30;;;7.50;;
20040;SDS011;10181;48.072;9.884;2023-02-28T05:12:02;8.30;;;7.50;;
20040;SDS011;10181;48.072;9.884;2023-02-28T05:14:28;6.87;;;6.33;;
20040;SDS011;10181;48.072;9.884;2023-02-28T05:16:54;6.70;;;6.20;;
20040;SDS011;10181;48.072;9.884;2023-02-28T05:19:19;6.57;;;5.97;;
20040;SDS011;10181;48.072;9.884;2023-02-28T05:21:50;7.57;;;5.80;;
20040;SDS011;10181;48.072;9.884;2023-02-28T05:24:17;7.07;;;6.47;;
20040;SDS011;10181;48.072;9.884;2023-02-28T05:26:48;7.97;;;7.23;;
20040;SDS011;10181;48.072;9.884;2023-02-28T05:29:16;7.23;;;6.63;;
20040;SDS011;10181;48.072;9.884;2023-02-28T05:31:42;7.37;;;6.67;;
20040;SDS011;10181;48.072;9.884;2023-02-28T05:34:08;6.77;;;6.17;;
20040;SDS011;10181;48.072;9.884;2023-02-28T05:36:37;7.87;;;7.10;;
20040;SDS011;10181;48.072;9.884;2023-02-28T05:39:05;8.83;;;8.03;;
20040;SDS011;10181;48.072;9.884;2023-02-28T05:41:32;6.73;;;6.23;;
20040;SDS011;10181;48.072;9.884;2023-02-28T05:43:57;7.47;;;6.73;;
20040;SDS011;10181;48.072;9.884;2023-02-28T05:46:24;7.37;;;6.73;;
20040;SDS011;10181;48.072;9.884;2023-02-28T05:48:50;7.33;;;6.73;;
20040;SDS011;10181;48.072;9.884;2023-02-28T05:51:16;7.40;;;6.70;;
20040;SDS011;10181;48.072;9.884;2023-02-28T05:53:42;8.57;;;7.53;;
20040;SDS011;10181;48.072;9.884;2023-02-28T05:56:08;7.83;;;7.17;;
20040;SDS011;10181;48.072;9.884;2023-02-28T05:58:33;8.30;;;7.50;;
20040;SDS011;10181;48.072;9.884;2023-02-28T06:01:00;9.27;;;8.43;;
20040;SDS011;10181;48.072;9.884;2023-02-28T06:03:44;7.43;;;6.93;;
20040;SDS011;10181;48.072;9.884;2023-02-28T06:06:09;8.30;;;7.70;;
20040;SDS011;10181;48.072;9.884;2023-02-28T06:08:35;9.93;;;9.17;;
20040;SDS011;10181;48.072;9.884;2023-02-28T06:11:02;8.93;;;7.63;;
20040;SDS011;10181;48.072;9.884;2023-02-28T06:13:29;7.77;;;7.23;;
20040;SDS011;10181;48.072;9.884;2023-02-28T06:15:54;8.43;;;7.57;;
20040;SDS011;10181;48.072;9.884;2023-02-28T06:18:20;8.40;;;7.63;;
20040;SDS011;10181;48.072;9.884;2023-02-28T06:20:52;7.40;;;6.50;;
20040;SDS011;10181;48.072;9.884;2023-02-28T06:23:21;8.23;;;7.10;;
20040;SDS011;10181;48.072;9.884;2023-02-28T06:25:47;8.40;;;7.57;;
20040;SDS011;10181;48.072;9.884;2023-02-28T06:28:14;8.67;;;7.97;;
20040;SDS011;10181;48.072;9.884;2023-02-28T06:30:40;9.57;;;8.70;;
20040;SDS011;10181;48.072;9.884;2023-02-28T06:33:05;12.60;;;8.63;;
20040;SDS011;10181;48.072;9.884;2023-02-28T06:35:31;9.53;;;8.67;;
20040;SDS011;10181;48.072;9.884;2023-02-28T06:37:56;8.37;;;7.30;;
20040;SDS011;10181;48.072;9.884;2023-02-28T06:40:22;11.80;;;9.30;;
20040;SDS011;10181;48.072;9.884;2023-02-28T06:42:48;9.47;;;8.73;;
20040;SDS011;10181;48.072;9.884;2023-02-28T06:45:13;9.37;;;8.43;;
20040;SDS011;10181;48.072;9.884;2023-02-28T06:47:39;11.67;;;9.23;;
20040;SDS011;10181;48.072;9.884;2023-02-28T06:50:06;10.80;;;7.50;;
20040;SDS011;10181;48.072;9.884;2023-02-28T06:52:34;10.53;;;8.17;;
20040;SDS011;10181;48.072;9.884;2023-02-28T06:55:02;8.80;;;8.07;;
20040;SDS011;10181;48.072;9.884;2023-02-28T06:57:29;9.70;;;8.40;;
20040;SDS011;10181;48.072;9.884;2023-02-28T06:59:57;9.20;;;8.30;;
20040;SDS011;10181;48.072;9.884;2023-02-28T07:02:23;7.97;;;6.90;;
20040;SDS011;10181;48.072;9.884;2023-02-28T07:04:49;7.83;;;7.17;;
20040;SDS011;10181;48.072;9.884;2023-02-28T07:07:15;10.37;;;9.17;;
20040;SDS011;10181;48.072;9.884;2023-02-28T07:09:40;8.77;;;7.83;;
20040;SDS011;10181;48.072;9.884;2023-02-28T07:12:06;12.30;;;9.13;;
20040;SDS011;10181;48.072;9.884;2023-02-28T07:14:31;9.20;;;8.30;;
20040;SDS011;10181;48.072;9.884;2023-02-28T07:16:57;7.33;;;6.70;;
20040;SDS011;10181;48.072;9.884;2023-02-28T07:19:23;10.10;;;8.73;;
20040;SDS011;10181;48.072;9.884;2023-02-28T07:21:48;7.83;;;7.07;;
20040;SDS011;10181;48.072;9.884;2023-02-28T07:24:14;8.27;;;7.47;;
20040;SDS011;10181;48.072;9.884;2023-02-28T07:26:41;9.47;;;8.00;;
20040;SDS011;10181;48.072;9.884;2023-02-28T07:29:06;10.20;;;8.07;;
20040;SDS011;10181;48.072;9.884;2023-02-28T07:31:32;11.30;;;8.27;;
20040;SDS011;10181;48.072;9.884;2023-02-28T07:33:58;8.10;;;7.30;;
20040;SDS011;10181;48.072;9.884;2023-02-28T07:36:23;8.03;;;7.23;;
20040;SDS011;10181;48.072;9.884;2023-02-28T07:38:49;9.93;;;9.03;;
20040;SDS011;10181;48.072;9.884;2023-02-28T07:41:15;8.07;;;7.37;;
20040;SDS011;10181;48.072;9.884;2023-02-28T07:43:45;9.63;;;7.67;;
20040;SDS011;10181;48.072;9.884;2023-02-28T07:46:12;9.93;;;9.07;;
20040;SDS011;10181;48.072;9.884;2023-02-28T07:48:42;11.53;;;9.43;;
20040;SDS011;10181;48.072;9.884;2023-02-28T07:51:08;9.87;;;8.97;;
20040;SDS011;10181;48.072;9.884;2023-02-28T07:53:34;10.67;;;9.50;;
20040;SDS011;10181;48.072;9.884;2023-02-28T07:56:00;13.17;;;10.10;;
20040;SDS011;10181;48.072;9.884;2023-02-28T07:58:28;10.10;;;9.27;;
20040;SDS011;10181;48.072;9.884;2023-02-28T08:00:55;9.37;;;8.30;;
20040;SDS011;10181;48.072;9.884;2023-02-28T08:03:21;9.63;;;8.77;;
20040;SDS011;10181;48.072;9.884;2023-02-28T08:05:48;10.63;;;8.43;;
20040;SDS011;10181;48.072;9.884;2023-02-28T08:08:15;9.47;;;8.67;;
20040;SDS011;10181;48.072;9.884;2023-02-28T08:10:41;10.50;;;9.57;;
20040;SDS011;10181;48.072;9.884;2023-02-28T08:13:07;10.83;;;9.80;;
20040;SDS011;10181;48.072;9.884;2023-02-28T08:15:33;12.10;;;11.10;;
20040;SDS011;10181;48.072;9.884;2023-02-28T08:17:58;12.37;;;11.27;;
20040;SDS011;10181;48.072;9.884;2023-02-28T08:20:24;15.07;;;13.67;;
20040;SDS011;10181;48.072;9.884;2023-02-28T08:22:51;16.00;;;14.90;;
20040;SDS011;10181;48.072;9.884;2023-02-28T08:25:16;16.63;;;15.27;;
20040;SDS011;10181;48.072;9.884;2023-02-28T08:27:42;16.57;;;15.37;;
20040;SDS011;10181;48.072;9.884;2023-02-28T08:30:12;14.50;;;13.43;;
20040;SDS011;10181;48.072;9.884;2023-02-28T08:32:38;14.07;;;12.93;;
20040;SDS011;10181;48.072;9.884;2023-02-28T08:35:05;13.80;;;11.37;;
20040;SDS011;10181;48.072;9.884;2023-02-28T08:37:31;13.93;;;12.67;;
20040;SDS011;10181;48.072;9.884;2023-02-28T08:39:56;13.53;;;12.43;;
20040;SDS011;10181;48.072;9.884;2023-02-28T08:42:23;14.67;;;13.40;;
20040;SDS011;10181;48.072;9.884;2023-02-28T08:44:49;16.50;;;15.07;;
20040;SDS011;10181;48.072;9.884;2023-02-28T08:47:14;16.50;;;15.23;;
20040;SDS011;10181;48.072;9.884;2023-02-28T08:49:40;15.37;;;14.40;;
20040;SDS011;10181;48.072;9.884;2023-02-28T08:52:06;17.20;;;15.90;;
20040;SDS011;10181;48.072;9.884;2023-02-28T08:54:31;18.00;;;16.13;;
20040;SDS011;10181;48.072;9.884;2023-02-28T08:56:58;17.23;;;15.87;;
20040;SDS011;10181;48.072;9.884;2023-02-28T08:59:23;15.80;;;14.70;;
20040;SDS011;10181;48.072;9.884;2023-02-28T09:01:49;15.53;;;14.13;;
20040;SDS011;10181;48.072;9.884;2023-02-28T09:04:15;15.10;;;13.73;;
20040;SDS011;10181;48.072;9.884;2023-02-28T09:06:40;17.17;;;15.70;;
20040;SDS011;10181;48.072;9.884;2023-02-28T09:09:06;17.03;;;14.60;;
20040;SDS011;10181;48.072;9.884;2023-02-28T09:11:32;16.90;;;15.63;;
20040;SDS011;10181;48.072;9.884;2023-02-28T09:14:00;16.83;;;15.10;;
20040;SDS011;10181;48.072;9.884;2023-02-28T09:16:28;19.03;;;17.57;;
20040;SDS011;10181;48.072;9.884;2023-02-28T09:18:56;18.63;;;17.10;;
20040;SDS011;10181;48.072;9.884;2023-02-28T09:21:22;17.77;;;16.33;;
20040;SDS011;10181;48.072;9.884;2023-02-28T09:23:49;19.67;;;18.13;;
20040;SDS011;10181;48.072;9.884;2023-02-28T09:26:23;17.27;;;15.73;;
20040;SDS011;10181;48.072;9.884;2023-02-28T09:28:50;14.10;;;13.10;;
20040;SDS011;10181;48.072;9.884;2023-02-28T09:31:18;13.60;;;12.40;;
20040;SDS011;10181;48.072;9.884;2023-02-28T09:33:49;12.40;;;11.00;;
20040;SDS011;10181;48.072;9.884;2023-02-28T09:36:16;11.73;;;10.57;;
20040;SDS011;10181;48.072;9.884;2023-02-28T09:38:42;11.27;;;10.20;;
20040;SDS011;10181;48.072;9.884;2023-02-28T09:41:13;10.37;;;9.47;;
20040;SDS011;10181;48.072;9.884;2023-02-28T09:43:55;11.83;;;9.93;;
20040;SDS011;10181;48.072;9.884;2023-02-28T09:46:34;10.20;;;9.17;;
20040;SDS011;10181;48.072;9.884;2023-02-28T09:49:06;11.53;;;10.03;;
20040;SDS011;10181;48.072;9.884;2023-02-28T09:54:28;11.30;;;9.63;;
20040;SDS011;10181;48.072;9.884;2023-02-28T09:59:30;12.83;;;11.63;;
20040;SDS011;10181;48.072;9.884;2023-02-28T10:04:51;17.03;;;11.37;;
20040;SDS011;10181;48.072;9.884;2023-02-28T10:10:04;11.43;;;9.97;;
20040;SDS011;10181;48.072;9.884;2023-02-28T10:12:43;12.23;;;10.10;;
20040;SDS011;10181;48.072;9.884;2023-02-28T10:15:14;17.57;;;12.47;;
20040;SDS011;10181;48.072;9.884;2023-02-28T10:17:43;16.00;;;11.63;;
20040;SDS011;10181;48.072;9.884;2023-02-28T10:20:12;18.97;;;10.80;;
20040;SDS011;10181;48.072;9.884;2023-02-28T10:25:23;12.93;;;11.47;;
20040;SDS011;10181;48.072;9.884;2023-02-28T10:27:57;14.00;;;10.97;;
20040;SDS011;10181;48.072;9.884;2023-02-28T10:30:26;10.97;;;9.20;;
20040;SDS011;10181;48.072;9.884;2023-02-28T10:32:53;13.37;;;12.10;;
20040;SDS011;10181;48.072;9.884;2023-02-28T10:35:23;14.17;;;12.77;;
20040;SDS011;10181;48.072;9.884;2023-02-28T10:37:52;13.00;;;11.63;;
20040;SDS011;10181;48.072;9.884;2023-02-28T10:42:58;11.90;;;9.97;;
20040;SDS011;10181;48.072;9.884;2023-02-28T10:45:33;12.23;;;10.93;;
20040;SDS011;10181;48.072;9.884;2023-02-28T10:50:44;11.50;;;9.90;;
20040;SDS011;10181;48.072;9.884;2023-02-28T10:53:22;14.17;;;12.63;;
20040;SDS011;10181;48.072;9.884;2023-02-28T10:58:27;13.17;;;11.87;;
20040;SDS011;10181;48.072;9.884;2023-02-28T11:01:17;13.00;;;11.90;;
20040;SDS011;10181;48.072;9.884;2023-02-28T11:03:43;13.90;;;12.50;;
20040;SDS011;10181;48.072;9.884;2023-02-28T11:06:16;12.37;;;10.50;;
20040;SDS011;10181;48.072;9.884;2023-02-28T11:09:05;11.27;;;9.93;;
20040;SDS011;10181;48.072;9.884;2023-02-28T11:12:04;13.60;;;11.30;;
20040;SDS011;10181;48.072;9.884;2023-02-28T11:14:51;10.90;;;9.53;;
20040;SDS011;10181;48.072;9.884;2023-02-28T11:17:20;11.87;;;10.70;;
20040;SDS011;10181;48.072;9.884;2023-02-28T11:20:04;13.00;;;10.17;;
20040;SDS011;10181;48.072;9.884;2023-02-28T11:22:36;12.57;;;10.33;;
20040;SDS011;10181;48.072;9.884;2023-02-28T11:25:30;14.13;;;12.33;;
20040;SDS011;10181;48.072;9.884;2023-02-28T11:27:59;13.57;;;10.73;;
20040;SDS011;10181;48.072;9.884;2023-02-28T11:35:55;13.13;;;12.03;;
20040;SDS011;10181;48.072;9.884;2023-02-28T11:38:26;13.23;;;11.83;;
20040;SDS011;10181;48.072;9.884;2023-02-28T11:40:56;12.33;;;11.03;;
20040;SDS011;10181;48.072;9.884;2023-02-28T11:43:36;13.33;;;9.03;;
20040;SDS011;10181;48.072;9.884;2023-02-28T11:46:18;12.07;;;10.97;;
20040;SDS011;10181;48.072;9.884;2023-02-28T11:54:44;23.73;;;21.97;;
20040;SDS011;10181;48.072;9.884;2023-02-28T11:57:49;18.30;;;16.90;;
20040;SDS011;10181;48.072;9.884;2023-02-28T12:00:39;18.03;;;16.33;;
20040;SDS011;10181;48.072;9.884;2023-02-28T12:06:24;22.23;;;20.57;;
20040;SDS011;10181;48.072;9.884;2023-02-28T12:09:02;20.50;;;18.90;;
20040;SDS011;10181;48.072;9.884;2023-02-28T12:11:56;15.50;;;14.00;;
20040;SDS011;10181;48.072;9.884;2023-02-28T12:17:16;27.37;;;25.27;;
20040;SDS011;10181;48.072;9.884;2023-02-28T12:24:47;17.13;;;15.30;;
20040;SDS011;10181;48.072;9.884;2023-02-28T12:27:24;15.97;;;14.67;;
20040;SDS011;10181;48.072;9.884;2023-02-28T12:30:15;13.13;;;11.43;;
20040;SDS011;10181;48.072;9.884;2023-02-28T12:33:00;11.80;;;10.70;;
20040;SDS011;10181;48.072;9.884;2023-02-28T12:40:57;8.03;;;7.17;;
20040;SDS011;10181;48.072;9.884;2023-02-28T12:43:25;19.23;;;17.83;;
20040;SDS011;10181;48.072;9.884;2023-02-28T12:48:42;9.17;;;7.90;;
20040;SDS011;10181;48.072;9.884;2023-02-28T12:51:11;11.07;;;10.07;;
20040;SDS011;10181;48.072;9.884;2023-02-28T12:56:41;15.67;;;14.47;;
20040;SDS011;10181;48.072;9.884;2023-02-28T13:10:23;13.07;;;11.93;;
20040;SDS011;10181;48.072;9.884;2023-02-28T13:12:49;12.60;;;11.63;;
20040;SDS011;10181;48.072;9.884;2023-02-28T13:17:51;10.50;;;9.63;;
20040;SDS011;10181;48.072;9.884;2023-02-28T13:20:20;8.50;;;7.70;;
20040;SDS011;10181;48.072;9.884;2023-02-28T13:22:51;9.63;;;8.63;;
20040;SDS011;10181;48.072;9.884;2023-02-28T13:27:47;13.57;;;12.57;;
20040;SDS011;10181;48.072;9.884;2023-02-28T13:35:45;10.73;;;8.93;;
20040;SDS011;10181;48.072;9.884;2023-02-28T13:38:53;15.93;;;14.57;;
20040;SDS011;10181;48.072;9.884;2023-02-28T13:44:02;10.63;;;9.33;;
20040;SDS011;10181;48.072;9.884;2023-02-28T13:49:19;8.37;;;7.57;;
20040;SDS011;10181;48.072;9.884;2023-02-28T13:51:51;12.30;;;9.23;;
20040;SDS011;10181;48.072;9.884;2023-02-28T14:05:23;8.70;;;7.80;;
20040;SDS011;10181;48.072;9.884;2023-02-28T14:07:56;10.83;;;7.33;;
20040;SDS011;10181;48.072;9.884;2023-02-28T14:20:41;8.87;;;7.60;;
20040;SDS011;10181;48.072;9.884;2023-02-28T14:23:22;7.67;;;6.63;;
20040;SDS011;10181;48.072;9.884;2023-02-28T14:33:44;8.23;;;7.40;;
20040;SDS011;10181;48.072;9.884;2023-02-28T14:36:23;8.27;;;7.47;;
20040;SDS011;10181;48.072;9.884;2023-02-28T14:39:05;8.30;;;7.43;;
20040;SDS011;10181;48.072;9.884;2023-02-28T14:41:40;8.43;;;7.37;;
20040;SDS011;10181;48.072;9.884;2023-02-28T14:44:14;9.57;;;7.77;;
20040;SDS011;10181;48.072;9.884;2023-02-28T14:46:46;8.80;;;7.20;;
20040;SDS011;10181;48.072;9.884;2023-02-28T14:49:20;8.37;;;6.70;;
20040;SDS011;10181;48.072;9.884;2023-02-28T14:52:05;9.07;;;6.83;;
20040;SDS011;10181;48.072;9.884;2023-02-28T14:54:40;8.87;;;7.43;;
20040;SDS011;10181;48.072;9.884;2023-02-28T14:57:06;10.70;;;7.80;;
20040;SDS011;10181;48.072;9.884;2023-02-28T14:59:45;7.80;;;6.33;;
20040;SDS011;10181;48.072;9.884;2023-02-28T15:04:57;9.03;;;7.57;;
20040;SDS011;10181;48.072;9.884;2023-02-28T15:07:25;12.00;;;8.60;;
20040;SDS011;10181;48.072;9.884;2023-02-28T15:12:44;17.20;;;16.00;;
20040;SDS011;10181;48.072;9.884;2023-02-28T15:15:21;19.57;;;18.07;;
20040;SDS011;10181;48.072;9.884;2023-02-28T15:17:52;15.50;;;14.30;;
20040;SDS011;10181;48.072;9.884;2023-02-28T15:20:21;10.37;;;9.53;;
20040;SDS011;10181;48.072;9.884;2023-02-28T15:22:49;13.30;;;12.20;;
20040;SDS011;10181;48.072;9.884;2023-02-28T15:25:18;8.63;;;7.87;;
20040;SDS011;10181;48.072;9.884;2023-02-28T15:27:50;9.17;;;7.93;;
20040;SDS011;10181;48.072;9.884;2023-02-28T15:30:29;8.13;;;6.97;;
20040;SDS011;10181;48.072;9.884;2023-02-28T15:35:41;8.43;;;7.63;;
20040;SDS011;10181;48.072;9.884;2023-02-28T15:38:15;7.13;;;6.43;;
20040;SDS011;10181;48.072;9.884;2023-02-28T15:40:43;10.90;;;7.87;;
20040;SDS011;10181;48.072;9.884;2023-02-28T15:43:23;11.70;;;8.03;;
20040;SDS011;10181;48.072;9.884;2023-02-28T15:51:22;7.93;;;6.63;;
20040;SDS011;10181;48.072;9.884;2023-02-28T15:54:06;7.37;;;6.10;;
20040;SDS011;10181;48.072;9.884;2023-02-28T15:56:35;12.50;;;7.60;;
20040;SDS011;10181;48.072;9.884;2023-02-28T15:59:07;8.43;;;6.87;;
20040;SDS011;10181;48.072;9.884;2023-02-28T16:01:40;10.30;;;7.53;;
20040;SDS011;10181;48.072;9.884;2023-02-28T16:04:10;7.63;;;6.83;;
20040;SDS011;10181;48.072;9.884;2023-02-28T16:06:43;8.10;;;7.30;;
20040;SDS011;10181;48.072;9.884;2023-02-28T16:09:11;8.37;;;7.17;;
20040;SDS011;10181;48.072;9.884;2023-02-28T16:11:45;11.43;;;7.30;;
20040;SDS011;10181;48.072;9.884;2023-02-28T16:14:14;7.60;;;6.47;;
20040;SDS011;10181;48.072;9.884;2023-02-28T16:16:43;7.13;;;6.37;;
20040;SDS011;10181;48.072;9.884;2023-02-28T16:19:11;9.97;;;7.20;;
20040;SDS011;10181;48.072;9.884;2023-02-28T16:21:36;8.77;;;6.60;;
20040;SDS011;10181;48.072;9.884;2023-02-28T16:24:02;7.73;;;6.53;;
20040;SDS011;10181;48.072;9.884;2023-02-28T16:26:27;8.47;;;7.67;;
20040;SDS011;10181;48.072;9.884;2023-02-28T16:28:53;19.60;;;18.30;;
20040;SDS011;10181;48.072;9.884;2023-02-28T16:31:19;11.10;;;10.07;;
20040;SDS011;10181;48.072;9.884;2023-02-28T16:33:45;16.63;;;15.37;;
20040;SDS011;10181;48.072;9.884;2023-02-28T16:36:18;16.50;;;15.50;;
20040;SDS011;10181;48.072;9.884;2023-02-28T16:38:46;18.00;;;16.63;;
20040;SDS011;10181;48.072;9.884;2023-02-28T16:41:12;13.40;;;12.30;;
20040;SDS011;10181;48.072;9.884;2023-02-28T16:43:44;17.13;;;15.73;;
20040;SDS011;10181;48.072;9.884;2023-02-28T16:46:11;19.00;;;17.80;;
20040;SDS011;10181;48.072;9.884;2023-02-28T16:48:37;16.13;;;14.87;;
20040;SDS011;10181;48.072;9.884;2023-02-28T16:51:05;22.03;;;20.53;;
20040;SDS011;10181;48.072;9.884;2023-02-28T16:53:40;15.10;;;14.00;;
20040;SDS011;10181;48.072;9.884;2023-02-28T16:56:08;7.27;;;5.97;;
20040;SDS011;10181;48.072;9.884;2023-02-28T16:58:45;8.57;;;6.43;;
20040;SDS011;10181;48.072;9.884;2023-02-28T17:01:12;6.70;;;6.00;;
20040;SDS011;10181;48.072;9.884;2023-02-28T17:03:38;10.90;;;7.07;;
20040;SDS011;10181;48.072;9.884;2023-02-28T17:06:05;6.57;;;5.47;;
20040;SDS011;10181;48.072;9.884;2023-02-28T17:08:38;8.37;;;6.97;;
20040;SDS011;10181;48.072;9.884;2023-02-28T17:11:04;10.43;;;8.67;;
20040;SDS011;10181;48.072;9.884;2023-02-28T17:13:29;9.27;;;8.47;;
20040;SDS011;10181;48.072;9.884;2023-02-28T17:15:55;9.17;;;8.37;;
20040;SDS011;10181;48.072;9.884;2023-02-28T17:18:21;8.30;;;7.40;;
20040;SDS011;10181;48.072;9.884;2023-02-28T17:20:47;9.07;;;7.57;;
20040;SDS011;10181;48.072;9.884;2023-02-28T17:23:13;9.27;;;6.63;;
20040;SDS011;10181;48.072;9.884;2023-02-28T17:25:38;6.87;;;6.17;;
20040;SDS011;10181;48.072;9.884;2023-02-28T17:28:04;7.43;;;6.70;;
20040;SDS011;10181;48.072;9.884;2023-02-28T17:30:31;8.40;;;6.63;;
20040;SDS011;10181;48.072;9.884;2023-02-28T17:32:58;8.27;;;7.17;;
20040;SDS011;10181;48.072;9.884;2023-02-28T17:35:24;6.33;;;5.73;;
20040;SDS011;10181;48.072;9.884;2023-02-28T17:37:51;7.17;;;5.90;;